Latest Weather Observations for Cairns

IDQ60801

Issued at 2:32 pm EST Saturday 18 April 2015 (issued every 30 minutes, with the page automatically refreshed every 10 minutes)

About weather observations | Map of weather stations | Latest weather observations for QLD | Other Formats
Station Details ID: 031011 Name: CAIRNS AERO Lat: -16.87 Lon: 145.75 Height: 2.22 m
Data from the previous 72 hours. | See also: Recent months at Cairns
Date/Time
EST
Temp
°C
App
Temp
°C
Dew
Point
Rel
Hum
%
Delta-T
°C
Wind Press
QNH
hPa
Press
MSL
hPa
Rain
since 9 am
mm
Dir
 
Spd
km/h
Gust
km/h
Spd
kts
Gust
kts
18/02:00pm 25.4 27.2 23.6 90 1.2 S 20 32 11 17 1013.2 - 3.2
18/01:30pm 25.0 26.2 23.2 90 1.2 S 22 37 12 20 1013.7 - 3.2
18/01:18pm 24.6 25.3 23.6 94 0.7 SSE 26 37 14 20 1014.0 - 3.2
18/01:00pm 26.9 29.1 24.3 86 1.8 SSE 20 26 11 14 1014.0 - 2.8
18/12:30pm 26.8 29.6 24.9 89 1.3 S 19 26 10 14 1014.0 - 2.8
18/12:00pm 25.5 28.7 23.7 90 1.2 SSE 13 19 7 10 1014.5 1014.4 2.8
18/11:57am 25.9 29.6 24.5 92 1.0 S 13 19 7 10 1014.6 - 2.4
18/11:30am 25.9 28.6 24.2 90 1.2 S 17 26 9 14 1015.1 - 1.4
18/11:24am 26.7 29.6 23.9 84 1.9 S 15 24 8 13 1015.1 - 1.2
18/11:00am 26.2 29.0 23.7 86 1.7 S 15 20 8 11 1015.4 - 1.2
18/10:30am 26.1 27.9 23.3 84 1.9 S 19 28 10 15 1015.6 - 0.8
18/10:00am 25.7 27.6 23.5 88 1.5 S 19 30 10 16 1015.9 - 0.8
18/09:30am 24.6 26.7 23.1 91 1.0 SSE 17 28 9 15 1015.8 - 0.8
18/09:12am 24.4 26.9 23.1 92 0.9 S 15 22 8 12 1015.4 - 0.6
18/09:00am 23.7 26.0 23.4 98 0.2 S 17 28 9 15 1015.3 1015.2 4.4
18/08:50am 25.1 27.3 22.6 86 1.7 S 15 26 8 14 1015.1 - 2.4
18/08:42am 25.1 27.3 22.6 86 1.7 SSW 15 26 8 14 1014.9 - 2.4
18/08:30am 25.0 27.3 22.8 87 1.5 S 15 26 8 14 1014.8 - 2.4
18/08:22am 24.3 26.2 22.8 91 1.0 S 17 30 9 16 1014.8 - 2.4
18/08:12am 24.2 25.6 22.9 92 0.9 S 20 32 11 17 1014.4 - 2.4
18/08:00am 24.4 25.6 22.5 89 1.3 S 20 32 11 17 1014.4 - 1.8
18/07:30am 23.7 24.5 22.5 93 0.8 S 22 32 12 17 1014.2 - 1.8
18/07:00am 23.5 24.7 22.5 94 0.7 S 20 28 11 15 1013.8 - 1.8
18/06:30am 23.5 24.8 22.3 93 0.8 SSE 19 26 10 14 1013.6 - 1.8
18/05:30am 23.6 24.8 22.1 91 1.0 S 19 28 10 15 1012.9 - 1.4
18/05:00am 23.5 23.7 22.1 92 0.9 S 24 35 13 19 1013.0 - 1.4
18/04:30am 23.5 25.1 22.1 92 0.9 SSE 17 26 9 14 1013.1 - 1.2
18/03:30am 24.3 25.4 21.3 83 2.0 S 17 26 9 14 1012.7 - 0.4
18/03:00am 24.7 25.7 21.0 80 2.4 S 17 26 9 14 1013.1 1013.0 0.4
18/02:30am 24.7 26.2 21.2 81 2.3 SSE 15 30 8 16 1013.0 - 0.4
18/02:00am 24.6 25.5 20.9 80 2.4 S 17 30 9 16 1013.1 - 0.4
18/01:30am 24.5 25.0 21.2 82 2.2 SSE 20 30 11 16 1013.8 - 0.4
18/01:00am 24.9 25.8 20.8 78 2.7 S 17 26 9 14 1014.3 - 0.4
18/12:30am 25.1 25.7 20.3 74 3.1 S 17 28 9 15 1014.6 - 0.4
 
Date/Time
EST
Temp
°C
App
Temp
°C
Dew
Point
Rel
Hum
%
Delta-T
°C
Wind Press
QNH
hPa
Press
MSL
hPa
Rain
since 9 am
mm
Dir
 
Spd
km/h
Gust
km/h
Spd
kts
Gust
kts
17/11:30pm 24.8 25.4 21.0 79 2.5 S 19 30 10 16 1014.9 - 0.4
17/11:00pm 24.9 25.4 20.9 78 2.6 S 19 28 10 15 1015.2 - 0.4
17/10:30pm 24.9 25.5 21.1 79 2.5 S 19 28 10 15 1015.3 - 0.4
17/10:00pm 24.7 25.4 21.2 81 2.3 S 19 26 10 14 1015.4 - 0.4
17/09:30pm 24.9 25.7 21.3 80 2.4 S 19 28 10 15 1015.2 - 0.4
17/09:00pm 24.5 25.7 21.5 83 2.0 S 17 26 9 14 1015.0 1014.9 0.4
17/08:30pm 24.2 26.7 21.8 86 1.6 S 11 19 6 10 1014.8 - 0.4
17/08:00pm 24.2 25.3 21.9 87 1.5 SSE 19 28 10 15 1014.6 - 0.4
17/07:30pm 25.4 26.4 21.0 76 2.9 S 17 26 9 14 1014.1 - 0.0
17/07:00pm 24.8 25.6 21.3 81 2.3 SSE 19 30 10 16 1013.6 - 0.0
17/06:30pm 25.8 26.7 20.8 74 3.3 S 17 30 9 16 1013.4 - 0.0
17/06:00pm 26.2 26.6 20.6 71 3.7 SSE 19 30 10 16 1013.2 1013.1 0.0
17/05:30pm 26.4 26.9 20.8 71 3.7 SSE 19 26 10 14 1013.2 - 0.0
17/05:00pm 26.9 27.8 20.8 69 4.0 SSE 17 26 9 14 1013.1 - 0.0
17/04:30pm 27.3 27.0 20.4 66 4.5 SE 22 30 12 16 1012.9 - 0.0
17/04:00pm 26.7 25.0 19.8 66 4.5 SE 28 37 15 20 1012.8 - 0.0
17/03:30pm 27.3 25.7 20.1 64 4.7 SE 28 39 15 21 1012.8 - 0.0
17/03:00pm 27.2 27.3 20.3 66 4.5 SSE 20 33 11 18 1013.0 1012.9 0.0
17/02:30pm 27.3 27.8 20.9 68 4.2 SSE 19 28 10 15 1013.2 - 0.0
17/02:00pm 26.4 26.7 21.6 75 3.2 SE 22 30 12 16 1013.6 - 0.0
17/01:30pm 25.5 27.4 22.8 85 1.8 ESE 17 24 9 13 1014.0 - 0.0
17/01:00pm 25.8 25.6 22.1 80 2.5 SSE 26 37 14 20 1014.3 - 0.0
17/12:30pm 28.0 25.5 20.2 62 5.1 SE 33 41 18 22 1014.1 - 0.0
17/12:00pm 28.6 25.9 20.4 61 5.4 SE 35 44 19 24 1014.6 1014.5 0.0
17/11:30am 28.8 26.6 20.3 60 5.6 SE 32 44 17 24 1015.1 - 0.0
17/11:00am 28.3 26.3 21.2 65 4.7 SE 33 39 18 21 1015.7 - 0.0
17/10:30am 28.1 25.7 21.0 65 4.7 SE 35 44 19 24 1016.2 - 0.0
17/10:00am 27.4 27.6 21.4 70 4.0 SSE 22 32 12 17 1016.3 - 0.0
17/09:30am 26.8 27.3 21.2 71 3.7 S 20 30 11 16 1016.5 - 0.0
17/09:00am 26.6 27.7 22.0 76 3.1 S 19 32 10 17 1016.4 1016.3 3.8
17/08:30am 25.1 25.8 21.6 81 2.3 S 20 26 11 14 1016.5 - 3.6
17/08:00am 23.7 25.9 21.9 90 1.2 ESE 13 24 7 13 1016.6 - 3.4
17/07:30am 24.5 25.3 20.7 79 2.5 S 17 28 9 15 1016.0 - 3.2
17/07:00am 24.4 24.8 20.6 79 2.5 SSE 19 28 10 15 1015.6 - 3.2
17/06:30am 24.0 24.3 20.5 81 2.3 SSE 19 28 10 15 1015.3 - 3.2
17/06:00am 23.8 24.1 20.4 81 2.2 SSE 19 26 10 14 1015.0 1014.9 3.2
17/05:30am 23.8 24.2 20.6 82 2.1 SSE 19 26 10 14 1014.8 - 3.2
17/05:00am 24.2 24.4 20.2 78 2.6 S 19 30 10 16 1014.4 - 3.2
17/04:30am 24.0 24.3 20.5 81 2.3 S 19 30 10 16 1014.3 - 3.2
17/04:00am 24.3 24.5 20.5 79 2.5 S 20 32 11 17 1014.4 - 3.2
17/03:30am 24.1 24.3 20.6 81 2.3 S 20 30 11 16 1014.4 - 3.2
17/03:00am 23.9 24.2 20.4 81 2.3 SSE 19 32 10 17 1014.6 1014.5 3.2
17/02:30am 23.5 23.8 20.7 84 1.8 S 20 30 11 16 1014.9 - 3.2
17/02:00am 23.6 24.0 21.0 85 1.7 S 20 35 11 19 1015.4 - 3.2
17/01:30am 23.7 23.9 20.6 83 2.0 S 20 30 11 16 1015.8 - 3.2
17/01:00am 23.9 24.6 21.2 85 1.8 S 19 30 10 16 1016.4 - 3.0
17/12:30am 23.4 24.0 21.3 88 1.4 S 20 30 11 16 1016.7 - 3.0
17/12:00am 23.8 24.7 20.9 84 1.9 S 17 28 9 15 1017.0 1016.9 3.0
 
Date/Time
EST
Temp
°C
App
Temp
°C
Dew
Point
Rel
Hum
%
Delta-T
°C
Wind Press
QNH
hPa
Press
MSL
hPa
Rain
since 9 am
mm
Dir
 
Spd
km/h
Gust
km/h
Spd
kts
Gust
kts
16/11:30pm 23.0 23.7 21.6 92 0.9 S 20 30 11 16 1017.4 - 3.0
16/11:00pm 24.1 24.0 20.7 81 2.2 S 22 33 12 18 1017.5 - 2.8
16/10:30pm 23.5 24.4 21.5 88 1.3 S 19 30 10 16 1017.9 - 2.8
16/10:00pm 24.5 25.7 20.7 79 2.5 S 15 22 8 12 1017.7 - 1.6
16/09:30pm 24.1 25.4 20.9 82 2.1 S 15 24 8 13 1018.0 - 0.8
16/09:00pm 24.2 25.8 20.7 81 2.3 SSE 13 17 7 9 1017.8 1017.7 0.6
16/08:30pm 24.5 24.1 19.3 73 3.3 SSE 20 26 11 14 1017.5 - 0.6
16/08:00pm 24.5 24.8 20.3 77 2.7 SSE 19 28 10 15 1017.1 - 0.6
16/07:30pm 24.5 26.1 20.7 79 2.5 SSE 13 19 7 10 1016.7 - 0.6
16/07:00pm 23.8 25.4 21.5 87 1.5 SSE 15 19 8 10 1016.7 - 0.6
16/06:30pm 23.7 21.7 21.1 85 1.7 SE 33 52 18 28 1016.5 - 0.6
16/06:23pm 25.3 23.8 20.9 76 2.9 SE 30 48 16 26 1016.4 - 0.0
16/06:00pm 26.7 24.6 19.8 66 4.5 SE 30 37 16 20 1016.1 1016.0 0.0
16/05:30pm 27.3 24.7 19.4 62 5.1 SE 32 39 17 21 1015.8 - 0.0
16/05:00pm 27.8 25.4 20.0 62 5.1 SE 32 39 17 21 1015.6 - 0.0
16/04:30pm 28.0 24.9 18.8 57 5.9 SE 33 46 18 25 1015.3 - 0.0
16/04:00pm 28.8 25.3 18.7 54 6.5 ESE 35 46 19 25 1015.2 - 0.0
16/03:30pm 29.1 26.2 20.1 58 5.9 SE 35 44 19 24 1015.1 - 0.0
16/03:00pm 29.1 25.5 19.4 55 6.3 ESE 37 46 20 25 1015.1 1015.0 0.0
16/02:30pm 29.2 25.7 19.7 56 6.2 SE 37 46 20 25 1015.3 - 0.0
16/02:00pm 30.0 27.1 20.1 55 6.5 SE 35 48 19 26 1015.4 - 0.0
16/01:30pm 29.9 27.6 20.2 56 6.4 SE 32 41 17 22 1015.9 - 0.0
16/01:00pm 30.2 27.5 20.4 55 6.5 SE 35 44 19 24 1016.2 - 0.0
16/12:30pm 29.8 27.0 20.2 56 6.3 SE 35 43 19 23 1016.5 - 0.0
16/12:00pm 29.0 25.6 19.8 57 6.0 SE 37 48 20 26 1017.0 1016.9 0.0
16/11:30am 29.3 26.4 20.0 57 6.1 SE 35 48 19 26 1017.5 - 0.0
16/11:10am 28.5 25.9 19.8 59 5.7 SE 33 52 18 28 1017.8 - 0.0
16/11:00am 28.9 26.5 20.4 60 5.6 ESE 33 44 18 24 1018.0 - 0.0
16/10:55am 28.4 25.8 20.0 60 5.5 SE 33 52 18 28 1018.1 - 0.0
16/10:30am 28.3 25.4 20.0 60 5.4 SE 35 48 19 26 1018.3 - 0.0
16/10:00am 29.1 27.4 20.5 59 5.7 SE 30 39 16 21 1018.6 - 0.0
16/09:30am 28.1 26.1 20.8 64 4.8 SE 32 37 17 20 1018.9 - 0.0
16/09:00am 27.2 26.7 20.7 67 4.3 SSE 24 32 13 17 1018.8 1018.7 1.4
16/08:30am 26.9 26.8 20.8 69 4.0 SSE 22 30 12 16 1018.6 - 1.4
16/08:00am 26.5 25.8 20.2 68 4.1 SE 24 32 13 17 1018.4 - 1.4
16/07:30am 25.5 24.9 19.8 70 3.7 SE 22 32 12 17 1018.1 - 1.4
16/07:00am 24.6 24.8 20.6 78 2.6 SSE 20 28 11 15 1017.8 - 1.4
16/06:30am 24.3 24.7 20.6 80 2.4 SSE 19 30 10 16 1017.3 - 1.4
16/06:00am 24.1 24.8 20.4 80 2.4 SSE 17 24 9 13 1017.0 1016.9 1.4
16/05:30am 24.1 24.4 20.4 80 2.4 SSE 19 24 10 13 1016.9 - 1.4
16/05:00am 24.0 24.4 20.6 81 2.2 SSE 19 26 10 14 1016.9 - 1.4
16/04:30am 24.4 24.8 20.6 79 2.5 S 19 30 10 16 1016.8 - 1.4
16/04:00am 24.5 25.1 20.3 77 2.7 S 17 26 9 14 1016.8 - 1.4
16/03:30am 23.7 24.2 20.8 84 1.9 S 19 30 10 16 1016.8 - 1.4
16/03:00am 24.2 24.5 20.5 80 2.4 S 19 28 10 15 1016.9 1016.8 1.4
16/02:30am 24.4 24.5 20.4 78 2.6 S 20 30 11 16 1017.2 - 1.4
16/02:00am 23.9 24.6 20.5 81 2.2 S 17 24 9 13 1017.6 - 1.4
16/01:30am 24.0 24.7 20.5 81 2.3 SSE 17 24 9 13 1017.8 - 1.4
16/01:00am 23.9 24.3 20.7 82 2.1 SSE 19 26 10 14 1018.3 - 1.4
16/12:30am 24.4 24.7 20.4 78 2.6 S 19 28 10 15 1018.6 - 1.4
16/12:00am 24.2 24.7 20.8 81 2.2 S 19 30 10 16 1019.2 1019.1 1.4
 
Date/Time
EST
Temp
°C
App
Temp
°C
Dew
Point
Rel
Hum
%
Delta-T
°C
Wind Press
QNH
hPa
Press
MSL
hPa
Rain
since 9 am
mm
Dir
 
Spd
km/h
Gust
km/h
Spd
kts
Gust
kts
15/11:30pm 24.0 24.5 20.9 83 2.0 S 19 30 10 16 1019.5 - 1.4
15/11:00pm 23.9 24.8 20.8 83 2.0 S 17 26 9 14 1019.6 - 1.4
15/10:30pm 23.8 24.5 21.2 85 1.7 S 19 32 10 17 1019.6 - 1.2
15/10:00pm 23.7 25.4 20.9 84 1.8 S 13 26 7 14 1019.7 - 1.2
15/09:30pm 23.4 24.4 21.1 87 1.5 S 17 30 9 16 1019.6 - 1.2
15/09:00pm 22.9 23.1 21.4 91 1.0 S 22 35 12 19 1019.6 1019.5 1.2
15/08:30pm 22.9 23.8 21.5 92 0.9 SSE 19 24 10 13 1019.4 - 1.2
15/08:00pm 23.1 23.7 21.4 90 1.1 SSE 20 28 11 15 1019.1 - 1.2
15/07:30pm 22.9 22.8 21.5 92 0.9 SSE 24 33 13 18 1018.6 - 1.2
15/07:00pm 24.1 24.5 19.9 77 2.7 S 17 28 9 15 1018.0 - 1.0
15/06:30pm 23.3 24.3 21.0 87 1.5 S 17 26 9 14 1017.8 - 1.0
15/06:00pm 23.8 25.4 22.1 90 1.1 E 17 28 9 15 1017.7 1017.6 1.0
15/05:55pm 23.6 23.8 22.1 91 1.0 E 24 30 13 16 1017.7 - 1.0
15/05:30pm 24.2 24.8 21.3 84 1.9 SSE 20 32 11 17 1017.4 - 1.0
15/05:00pm 24.9 25.8 22.0 84 1.9 SSE 20 30 11 16 1017.2 - 1.0
15/04:30pm 24.6 24.8 22.8 90 1.2 SSE 26 39 14 21 1016.8 - 1.0
15/04:22pm 26.1 24.9 22.2 79 2.6 SE 32 41 17 22 1016.7 - 0.8
15/04:00pm 27.6 27.7 21.1 67 4.3 SE 22 30 12 16 1016.4 - 0.8
15/03:30pm 28.1 28.0 20.7 64 4.9 SE 22 32 12 17 1016.4 - 0.8
15/03:00pm 27.2 26.1 20.2 65 4.6 SSE 26 37 14 20 1016.5 1016.4 0.8

Other Formats:

Comma delimited format used in spreadsheet applications
http://www.bom.gov.au/fwo/IDQ60801/IDQ60801.94287.axf

JavaScript Object Notation format (JSON) in row-major order
http://www.bom.gov.au/fwo/IDQ60801/IDQ60801.94287.json